KOLE/OLE METAR and TAF weather

Enter ICAO airport designator
Station Type Date Time Source
KOLE METAR 2019/08/20 09:35 UTC NOAA

KOLE 200935Z AUTO 20005KT 1/4SM FG OVC002 15/15 A3017 RMK AO2 LTG DSNT SW


Station Type Date Time Source
KOLE Decoded METAR 2019/08/20 09:35 UTC NOAA

Olean Municipal, NY, United States (KOLE) 42-14N 078-22W
Aug 20, 2019 - 05:35 AM EDT / 2019.08.20 0935 UTC
Wind: from the SSW (200 degrees) at 6 MPH (5 KT):0
Visibility: 1/4 mile(s):0
Sky conditions: overcast
Weather: fog; Lightning observed
Temperature: 59 F (15 C)
Dew Point: 59 F (15 C)
Relative Humidity: 100%
Pressure (altimeter): 30.17 in. Hg (1021 hPa)
ob: KOLE 200935Z AUTO 20005KT 1/4SM FG OVC002 15/15 A3017 RMK AO2 LTG DSNT SW
cycle: 9

Station Type Date Time Source
KOLE TAF UTC NOAA

Error!

Example: see airport list